createdAt,value
2022-09-22T00:00:15.555Z,407
2022-09-22T00:01:16.697Z,402
2022-09-22T00:02:16.163Z,408
2022-09-22T00:03:15.807Z,400
2022-09-22T00:04:15.746Z,398
2022-09-22T00:05:16.077Z,409
2022-09-22T00:06:15.905Z,402
2022-09-22T00:07:16.389Z,407
2022-09-22T00:09:15.492Z,399
2022-09-22T00:10:16.680Z,401
2022-09-22T00:11:16.396Z,409
2022-09-22T00:12:16.143Z,404
2022-09-22T00:13:07.519Z,414
2022-09-22T00:14:15.359Z,407
2022-09-22T00:15:16.023Z,392
2022-09-22T00:16:15.883Z,396
2022-09-22T00:17:16.246Z,398
2022-09-22T00:18:16.094Z,403
2022-09-22T00:19:14.950Z,400
2022-09-22T00:20:16.377Z,409
2022-09-22T00:21:15.961Z,408
2022-09-22T00:22:06.644Z,412
2022-09-22T00:23:15.539Z,406
2022-09-22T00:24:15.116Z,401
2022-09-22T00:25:15.881Z,399
2022-09-22T00:26:16.135Z,395
2022-09-22T00:27:15.823Z,392
2022-09-22T00:28:15.819Z,396
2022-09-22T00:29:07.826Z,406
2022-09-22T00:30:07.505Z,405
2022-09-22T00:31:16.310Z,393
2022-09-22T00:32:16.101Z,391
2022-09-22T00:33:15.866Z,395
2022-09-22T00:34:15.957Z,399
2022-09-22T00:35:15.928Z,401
2022-09-22T00:36:15.037Z,393
2022-09-22T00:38:15.416Z,406
2022-09-22T00:39:07.958Z,405
2022-09-22T00:40:15.637Z,403
2022-09-22T00:41:16.255Z,397
2022-09-22T00:42:15.981Z,393
2022-09-22T00:43:16.071Z,394
2022-09-22T00:44:15.896Z,397
2022-09-22T00:45:15.958Z,393
2022-09-22T00:46:07.307Z,391
2022-09-22T00:47:07.164Z,398
2022-09-22T00:48:16.167Z,404
2022-09-22T00:49:06.478Z,407
2022-09-22T00:50:07.111Z,401
2022-09-22T00:51:07.118Z,395
2022-09-22T00:52:07.459Z,392
2022-09-22T00:53:16.167Z,399
2022-09-22T00:54:15.011Z,396
2022-09-22T00:56:15.148Z,393
2022-09-22T00:57:16.289Z,403
2022-09-22T00:58:07.621Z,405
2022-09-22T00:59:15.912Z,396
2022-09-22T01:00:15.627Z,402
2022-09-22T01:01:16.390Z,398
2022-09-22T01:02:07.527Z,400
2022-09-22T01:03:16.078Z,412
2022-09-22T01:04:15.009Z,400
2022-09-22T01:05:16.228Z,413
2022-09-22T01:06:16.020Z,407
2022-09-22T01:07:15.787Z,402
2022-09-22T01:08:15.982Z,397
2022-09-22T01:09:16.528Z,407
2022-09-22T01:10:15.660Z,412
2022-09-22T01:11:16.521Z,406
2022-09-22T01:12:16.486Z,404
2022-09-22T01:13:15.716Z,410
2022-09-22T01:14:15.636Z,406
2022-09-22T01:15:15.765Z,408
2022-09-22T01:16:15.591Z,400
2022-09-22T01:18:16.478Z,402
2022-09-22T01:19:16.565Z,408
2022-09-22T01:20:06.806Z,409
2022-09-22T01:21:15.910Z,419
2022-09-22T01:22:16.545Z,417
2022-09-22T01:23:16.202Z,416
2022-09-22T01:24:14.945Z,412
2022-09-22T01:25:16.317Z,411
2022-09-22T01:27:07.245Z,407
2022-09-22T01:28:16.250Z,410
2022-09-22T01:29:14.980Z,408
2022-09-22T01:30:16.191Z,411
2022-09-22T01:31:15.967Z,424
2022-09-22T01:32:07.293Z,419
2022-09-22T01:33:16.200Z,408
2022-09-22T01:34:07.662Z,413
2022-09-22T01:35:06.717Z,415
2022-09-22T01:36:15.613Z,404
2022-09-22T01:37:08.001Z,409
2022-09-22T01:38:15.586Z,416
2022-09-22T01:39:15.411Z,409
2022-09-22T01:40:06.616Z,406
2022-09-22T01:41:16.073Z,421
2022-09-22T01:42:15.734Z,417
2022-09-22T01:43:16.695Z,409
2022-09-22T01:44:15.473Z,410
2022-09-22T01:45:15.714Z,418
2022-09-22T01:46:07.071Z,417
2022-09-22T01:47:16.516Z,412
2022-09-22T01:48:16.121Z,401
2022-09-22T01:49:15.578Z,407
2022-09-22T01:50:16.406Z,409
2022-09-22T01:51:16.212Z,407
2022-09-22T01:52:06.404Z,402
2022-09-22T01:53:15.811Z,408
2022-09-22T01:54:15.570Z,411
2022-09-22T01:55:16.022Z,406
2022-09-22T01:56:15.602Z,397
2022-09-22T01:57:16.605Z,401
2022-09-22T01:58:16.467Z,400
2022-09-22T01:59:15.407Z,401
2022-09-22T02:00:16.133Z,415
2022-09-22T02:01:19.247Z,416
2022-09-22T02:02:17.004Z,418
2022-09-22T02:03:16.376Z,420
2022-09-22T02:04:15.204Z,419
2022-09-22T02:05:16.740Z,421
2022-09-22T02:07:15.965Z,412
2022-09-22T02:08:16.264Z,411
2022-09-22T02:09:08.148Z,415
2022-09-22T02:11:15.932Z,409
2022-09-22T02:12:16.221Z,405
2022-09-22T02:13:16.333Z,395
2022-09-22T02:14:15.011Z,404
2022-09-22T02:15:15.640Z,411
2022-09-22T02:16:07.610Z,419
2022-09-22T02:18:15.670Z,416
2022-09-22T02:19:18.426Z,410
2022-09-22T02:20:16.425Z,406
2022-09-22T02:21:05.834Z,408
2022-09-22T02:22:16.123Z,415
2022-09-22T02:23:16.363Z,419
2022-09-22T02:24:15.181Z,405
2022-09-22T02:25:15.738Z,404
2022-09-22T02:27:16.139Z,401
2022-09-22T02:28:15.982Z,399
2022-09-22T02:29:15.562Z,407
2022-09-22T02:30:15.667Z,396
2022-09-22T02:31:25.471Z,401
2022-09-22T02:32:07.576Z,403
2022-09-22T02:33:16.614Z,402
2022-09-22T02:34:15.366Z,406
2022-09-22T02:35:16.002Z,403
2022-09-22T02:36:16.599Z,400
2022-09-22T02:37:16.028Z,399
2022-09-22T02:38:15.803Z,400
2022-09-22T02:39:15.610Z,406
2022-09-22T02:40:15.977Z,399
2022-09-22T02:41:15.700Z,405
2022-09-22T02:42:16.371Z,401
2022-09-22T02:43:15.773Z,403
2022-09-22T02:44:14.932Z,406
2022-09-22T02:46:16.235Z,407
2022-09-22T02:47:15.820Z,405
2022-09-22T02:48:16.186Z,414
2022-09-22T02:49:16.410Z,416
2022-09-22T02:50:16.434Z,405
2022-09-22T02:51:16.194Z,407
2022-09-22T02:52:15.289Z,409
2022-09-22T02:53:16.436Z,399
2022-09-22T02:54:15.017Z,404
2022-09-22T02:55:15.822Z,407
2022-09-22T02:57:15.703Z,406
2022-09-22T02:58:16.677Z,415
2022-09-22T02:59:15.463Z,417
2022-09-22T03:00:07.360Z,408
2022-09-22T03:02:15.957Z,418
2022-09-22T03:03:16.768Z,424
2022-09-22T03:04:15.948Z,416
2022-09-22T03:05:07.346Z,408
2022-09-22T03:06:15.769Z,404
2022-09-22T03:07:16.259Z,412
2022-09-22T03:08:06.992Z,416
2022-09-22T03:09:15.653Z,418
2022-09-22T03:10:15.834Z,420
2022-09-22T03:11:07.828Z,416
2022-09-22T03:12:07.405Z,411
2022-09-22T03:13:21.739Z,417
2022-09-22T03:14:15.738Z,425
2022-09-22T03:15:07.072Z,414
2022-09-22T03:16:16.276Z,413
2022-09-22T03:17:07.410Z,423
2022-09-22T03:18:15.661Z,419
2022-09-22T03:19:16.301Z,418
2022-09-22T03:20:16.238Z,421
2022-09-22T03:21:07.848Z,420
2022-09-22T03:22:15.733Z,413
2022-09-22T03:23:16.711Z,416
2022-09-22T03:24:15.538Z,422
2022-09-22T03:25:15.701Z,427
2022-09-22T03:26:26.053Z,420
2022-09-22T03:28:15.914Z,419
2022-09-22T03:29:16.416Z,416
2022-09-22T03:30:16.056Z,419
2022-09-22T03:31:07.501Z,424
2022-09-22T03:32:07.150Z,425
2022-09-22T03:33:15.858Z,421
2022-09-22T03:34:06.868Z,411
2022-09-22T03:35:16.078Z,417
2022-09-22T03:36:15.704Z,419
2022-09-22T03:37:15.426Z,426
2022-09-22T03:38:15.980Z,424
2022-09-22T03:39:15.001Z,442
2022-09-22T03:40:16.311Z,435
2022-09-22T03:41:16.125Z,436
2022-09-22T03:42:15.428Z,425
2022-09-22T03:44:14.921Z,414
2022-09-22T03:45:15.665Z,419
2022-09-22T03:46:15.876Z,426
2022-09-22T03:47:16.109Z,423
2022-09-22T03:48:15.621Z,427
2022-09-22T03:49:15.543Z,432
2022-09-22T03:50:15.780Z,433
2022-09-22T03:51:15.693Z,427
2022-09-22T03:52:07.907Z,420
2022-09-22T03:53:16.146Z,428
2022-09-22T03:54:15.315Z,431
2022-09-22T03:55:16.654Z,425
2022-09-22T03:56:07.358Z,426
2022-09-22T03:58:16.381Z,429
2022-09-22T03:59:08.004Z,425
2022-09-22T04:00:07.589Z,413
2022-09-22T04:01:16.729Z,422
2022-09-22T04:02:16.061Z,434
2022-09-22T04:03:15.836Z,428
2022-09-22T04:04:15.523Z,430
2022-09-22T04:05:15.979Z,428
2022-09-22T04:06:16.093Z,433
2022-09-22T04:07:16.065Z,444
2022-09-22T04:08:15.655Z,448
2022-09-22T04:09:14.954Z,443
2022-09-22T04:11:16.564Z,436
2022-09-22T04:12:16.081Z,428
2022-09-22T04:13:15.980Z,424
2022-09-22T04:14:15.733Z,425
2022-09-22T04:15:16.190Z,427
2022-09-22T04:16:15.963Z,429
2022-09-22T04:17:16.074Z,427
2022-09-22T04:18:16.397Z,423
2022-09-22T04:20:16.351Z,422
2022-09-22T04:22:16.599Z,423
2022-09-22T04:23:16.006Z,434
2022-09-22T04:24:14.686Z,440
2022-09-22T04:25:07.815Z,422
2022-09-22T04:26:15.504Z,425
2022-09-22T04:27:24.346Z,427
2022-09-22T04:28:15.765Z,417
2022-09-22T04:29:15.865Z,415
2022-09-22T04:30:16.149Z,424
2022-09-22T04:31:07.226Z,433
2022-09-22T04:32:15.646Z,427
2022-09-22T04:33:16.506Z,423
2022-09-22T04:34:14.781Z,430
2022-09-22T04:35:15.792Z,433
2022-09-22T04:36:16.290Z,429
2022-09-22T04:37:15.611Z,417
2022-09-22T04:38:16.083Z,411
2022-09-22T04:39:15.325Z,415
2022-09-22T04:40:15.731Z,427
2022-09-22T04:41:16.612Z,415
2022-09-22T04:42:15.602Z,416
2022-09-22T04:43:06.053Z,434
2022-09-22T04:45:06.869Z,424
2022-09-22T04:46:16.212Z,427
2022-09-22T04:47:16.474Z,421
2022-09-22T04:48:06.916Z,426
2022-09-22T04:50:15.781Z,423
2022-09-22T04:51:16.469Z,425
2022-09-22T04:52:16.074Z,435
2022-09-22T04:53:07.680Z,441
2022-09-22T04:54:15.264Z,436
2022-09-22T04:55:16.025Z,426
2022-09-22T04:56:15.356Z,423
2022-09-22T04:57:20.340Z,427
2022-09-22T04:58:15.427Z,433
2022-09-22T04:59:14.843Z,435
2022-09-22T05:00:15.911Z,447
2022-09-22T05:01:16.154Z,451
2022-09-22T05:02:15.669Z,445
2022-09-22T05:03:19.884Z,438
2022-09-22T05:04:15.356Z,437
2022-09-22T05:05:07.318Z,435
2022-09-22T05:06:17.698Z,444
2022-09-22T05:07:15.466Z,438
2022-09-22T05:08:15.677Z,428
2022-09-22T05:09:07.178Z,442
2022-09-22T05:10:06.519Z,440
2022-09-22T05:11:07.242Z,427
2022-09-22T05:12:16.050Z,429
2022-09-22T05:13:15.750Z,432
2022-09-22T05:14:06.570Z,428
2022-09-22T05:15:06.989Z,432
2022-09-22T05:17:07.938Z,431
2022-09-22T05:18:16.180Z,442
2022-09-22T05:19:15.352Z,441
2022-09-22T05:20:16.350Z,436
2022-09-22T05:21:07.380Z,440
2022-09-22T05:22:07.280Z,448
2022-09-22T05:23:07.098Z,443
2022-09-22T05:24:15.292Z,447
2022-09-22T05:25:07.436Z,441
2022-09-22T05:26:16.480Z,442
2022-09-22T05:27:15.727Z,452
2022-09-22T05:28:08.046Z,447
2022-09-22T05:29:15.756Z,442
2022-09-22T05:30:15.637Z,445
2022-09-22T05:32:15.498Z,450
2022-09-22T05:34:14.855Z,444
2022-09-22T05:36:21.393Z,445
2022-09-22T05:37:21.516Z,440
2022-09-22T05:38:16.179Z,445
2022-09-22T05:39:15.675Z,443
2022-09-22T05:40:16.091Z,440
2022-09-22T05:41:16.771Z,447
2022-09-22T05:42:16.143Z,448
2022-09-22T05:43:16.133Z,455
2022-09-22T05:44:15.456Z,460
2022-09-22T05:45:16.335Z,456
2022-09-22T05:46:21.035Z,448
2022-09-22T05:47:16.516Z,446
2022-09-22T05:48:18.811Z,451
2022-09-22T05:49:15.368Z,445
2022-09-22T05:50:16.300Z,462
2022-09-22T05:52:15.632Z,450
2022-09-22T05:53:16.404Z,444
2022-09-22T05:54:14.847Z,446
2022-09-22T05:55:16.838Z,459
2022-09-22T05:56:16.442Z,465
2022-09-22T05:58:17.240Z,452
2022-09-22T05:59:16.224Z,456
2022-09-22T06:00:15.941Z,454
2022-09-22T06:02:29.556Z,455
2022-09-22T06:03:16.709Z,447
2022-09-22T06:04:14.996Z,444
2022-09-22T06:05:18.619Z,448
2022-09-22T06:06:15.786Z,449
2022-09-22T06:07:15.702Z,447
2022-09-22T06:08:15.967Z,441
2022-09-22T06:09:07.201Z,446
2022-09-22T06:11:16.255Z,444
2022-09-22T06:12:07.063Z,446
2022-09-22T06:13:16.168Z,437
2022-09-22T06:14:15.484Z,439
2022-09-22T06:15:16.399Z,435
2022-09-22T06:16:16.358Z,446
2022-09-22T06:17:07.349Z,447
2022-09-22T06:18:24.107Z,441
2022-09-22T06:19:15.802Z,433
2022-09-22T06:20:16.065Z,434
2022-09-22T06:21:07.648Z,438
2022-09-22T06:22:15.955Z,437
2022-09-22T06:24:16.112Z,446
2022-09-22T06:25:07.260Z,443
2022-09-22T06:26:15.757Z,441
2022-09-22T06:27:16.636Z,435
2022-09-22T06:28:16.193Z,437
2022-09-22T06:29:15.726Z,436
2022-09-22T06:30:16.855Z,432
2022-09-22T06:31:16.233Z,435
2022-09-22T06:32:15.729Z,443
2022-09-22T06:33:16.189Z,441
2022-09-22T06:34:15.178Z,445
2022-09-22T06:35:16.449Z,438
2022-09-22T06:38:16.111Z,441
2022-09-22T06:39:16.429Z,437
2022-09-22T06:40:17.750Z,432
2022-09-22T06:41:15.705Z,433
2022-09-22T06:42:16.379Z,427
2022-09-22T06:43:16.417Z,430
2022-09-22T06:44:14.736Z,434
2022-09-22T06:45:16.461Z,426
2022-09-22T06:46:16.111Z,429
2022-09-22T06:47:07.236Z,440
2022-09-22T06:48:10.100Z,426
2022-09-22T06:49:07.548Z,417
2022-09-22T06:50:16.015Z,421
2022-09-22T06:52:15.656Z,424
2022-09-22T06:53:08.025Z,421
2022-09-22T06:54:16.439Z,426
2022-09-22T06:55:07.564Z,424
2022-09-22T06:56:07.313Z,428
2022-09-22T06:57:07.435Z,426
2022-09-22T06:58:15.569Z,414
2022-09-22T06:59:16.713Z,412
2022-09-22T07:00:16.150Z,408
2022-09-22T07:01:16.060Z,399
2022-09-22T07:02:07.858Z,392
2022-09-22T07:03:15.421Z,399
2022-09-22T07:04:15.191Z,416
2022-09-22T07:05:15.798Z,407
2022-09-22T07:06:20.053Z,406
2022-09-22T07:07:16.312Z,411
2022-09-22T07:08:15.565Z,398
2022-09-22T07:09:16.290Z,391
2022-09-22T07:10:16.291Z,383
2022-09-22T07:11:15.733Z,380
2022-09-22T07:12:16.613Z,377
2022-09-22T07:13:16.162Z,381
2022-09-22T07:14:15.057Z,368
2022-09-22T07:15:07.845Z,365
2022-09-22T07:16:15.888Z,364
2022-09-22T07:17:07.705Z,368
2022-09-22T07:18:07.864Z,379
2022-09-22T07:20:16.059Z,372
2022-09-22T07:21:16.469Z,365
2022-09-22T07:22:07.093Z,370
2022-09-22T07:23:16.365Z,372
2022-09-22T07:24:14.841Z,378
2022-09-22T07:25:16.509Z,372
2022-09-22T07:26:16.180Z,364
2022-09-22T07:27:15.955Z,365
2022-09-22T07:28:16.676Z,364
2022-09-22T07:29:15.786Z,353
2022-09-22T07:30:15.708Z,362
2022-09-22T07:32:16.255Z,360
2022-09-22T07:33:16.004Z,351
2022-09-22T07:34:17.159Z,346
2022-09-22T07:35:07.444Z,357
2022-09-22T07:36:07.803Z,363
2022-09-22T07:37:16.510Z,356
2022-09-22T07:38:15.628Z,350
2022-09-22T07:39:14.763Z,356
2022-09-22T07:40:16.560Z,361
2022-09-22T07:41:16.227Z,369
2022-09-22T07:42:06.827Z,365
2022-09-22T07:43:15.819Z,358
2022-09-22T07:45:15.329Z,361
2022-09-22T07:46:15.923Z,368
2022-09-22T07:47:16.025Z,363
2022-09-22T07:48:15.538Z,367
2022-09-22T07:49:15.482Z,370
2022-09-22T07:50:15.715Z,362
2022-09-22T07:51:20.906Z,360
2022-09-22T07:52:16.282Z,364
2022-09-22T07:53:15.931Z,365
2022-09-22T07:54:06.570Z,364
2022-09-22T07:55:15.594Z,350
2022-09-22T07:56:16.018Z,345
2022-09-22T07:57:16.197Z,341
2022-09-22T07:58:17.466Z,339
2022-09-22T07:59:16.276Z,344
2022-09-22T08:00:16.028Z,356
2022-09-22T08:01:07.586Z,359
2022-09-22T08:02:16.060Z,353
2022-09-22T08:03:16.387Z,360
2022-09-22T08:04:16.302Z,353
2022-09-22T08:05:15.841Z,347
2022-09-22T08:06:16.501Z,354
2022-09-22T08:07:07.610Z,361
2022-09-22T08:08:15.838Z,360
2022-09-22T08:09:15.706Z,359
2022-09-22T08:10:15.980Z,353
2022-09-22T08:11:16.071Z,352
2022-09-22T08:12:07.369Z,353
2022-09-22T08:14:07.949Z,349
2022-09-22T08:15:16.321Z,352
2022-09-22T08:16:15.711Z,354
2022-09-22T08:17:07.344Z,359
2022-09-22T08:18:07.650Z,368
2022-09-22T08:19:07.758Z,367
2022-09-22T08:20:16.087Z,361
2022-09-22T08:21:16.040Z,366
2022-09-22T08:22:15.796Z,360
2022-09-22T08:23:16.568Z,357
2022-09-22T08:24:07.801Z,354
2022-09-22T08:25:16.068Z,349
2022-09-22T08:26:15.949Z,347
2022-09-22T08:28:15.735Z,353
2022-09-22T08:30:15.922Z,358
2022-09-22T08:31:16.461Z,353
2022-09-22T08:32:16.094Z,360
2022-09-22T08:33:15.535Z,356
2022-09-22T08:34:07.597Z,354
2022-09-22T08:36:15.564Z,356
2022-09-22T08:37:15.579Z,358
2022-09-22T08:39:15.720Z,373
2022-09-22T08:40:16.436Z,375
2022-09-22T08:41:15.872Z,373
2022-09-22T08:43:15.646Z,368
2022-09-22T08:44:08.074Z,381
2022-09-22T08:45:15.466Z,370
2022-09-22T08:46:16.110Z,361
2022-09-22T08:47:15.685Z,360
2022-09-22T08:48:15.634Z,356
2022-09-22T08:49:16.128Z,365
2022-09-22T08:50:16.311Z,367
2022-09-22T08:51:15.932Z,372
2022-09-22T08:52:15.889Z,367
2022-09-22T08:54:16.082Z,379
2022-09-22T08:55:16.508Z,368
2022-09-22T08:56:15.619Z,369
2022-09-22T08:57:16.340Z,361
2022-09-22T08:58:15.806Z,358
2022-09-22T08:59:15.408Z,364
2022-09-22T09:00:07.742Z,369
2022-09-22T09:01:08.189Z,367
2022-09-22T09:02:15.488Z,362
2022-09-22T09:03:16.471Z,373
2022-09-22T09:04:15.907Z,377
2022-09-22T09:05:15.775Z,370
2022-09-22T09:06:16.210Z,377
2022-09-22T09:07:15.775Z,374
2022-09-22T09:08:15.131Z,377
2022-09-22T09:09:16.046Z,361
2022-09-22T09:10:15.698Z,360
2022-09-22T09:11:07.696Z,361
2022-09-22T09:12:16.135Z,358
2022-09-22T09:13:07.702Z,350
2022-09-22T09:14:16.025Z,340
2022-09-22T09:15:15.664Z,341
2022-09-22T09:16:16.947Z,347
2022-09-22T09:18:15.901Z,348
2022-09-22T09:19:14.924Z,352
2022-09-22T09:20:07.342Z,354
2022-09-22T09:21:16.290Z,358
2022-09-22T09:22:15.736Z,361
2022-09-22T09:23:16.554Z,352
2022-09-22T09:25:28.215Z,345
2022-09-22T09:26:16.340Z,337
2022-09-22T09:27:15.958Z,336
2022-09-22T09:28:16.626Z,337
2022-09-22T09:29:16.132Z,352
2022-09-22T09:30:07.537Z,345
2022-09-22T09:31:07.529Z,342
2022-09-22T09:32:15.487Z,349
2022-09-22T09:33:16.352Z,344
2022-09-22T09:34:15.274Z,353
2022-09-22T09:35:16.759Z,360
2022-09-22T09:37:07.652Z,344
2022-09-22T09:38:16.326Z,352
2022-09-22T09:40:16.822Z,347
2022-09-22T09:41:15.980Z,344
2022-09-22T09:42:07.019Z,350
2022-09-22T09:43:07.372Z,347
2022-09-22T09:44:07.151Z,343
2022-09-22T09:45:15.769Z,334
2022-09-22T09:46:07.684Z,333
2022-09-22T09:47:16.055Z,338
2022-09-22T09:48:16.596Z,331
2022-09-22T09:49:15.329Z,329
2022-09-22T09:50:15.374Z,336
2022-09-22T09:51:16.414Z,337
2022-09-22T09:52:07.397Z,332
2022-09-22T09:53:15.980Z,333
2022-09-22T09:54:06.341Z,336
2022-09-22T09:55:07.176Z,330
2022-09-22T09:57:15.858Z,337
2022-09-22T09:58:16.321Z,342
2022-09-22T09:59:16.070Z,330
2022-09-22T10:00:07.552Z,336
2022-09-22T10:01:16.355Z,329
2022-09-22T10:02:15.739Z,331
2022-09-22T10:03:16.653Z,328
2022-09-22T10:04:15.679Z,327
2022-09-22T10:05:16.662Z,335
2022-09-22T10:06:15.984Z,336
2022-09-22T10:07:15.760Z,334
2022-09-22T10:08:16.236Z,332
2022-09-22T10:09:15.933Z,325
2022-09-22T10:10:16.316Z,333
2022-09-22T10:11:07.544Z,328
2022-09-22T10:12:16.394Z,327
2022-09-22T10:13:18.162Z,340
2022-09-22T10:14:07.123Z,341
2022-09-22T10:15:15.948Z,324
2022-09-22T10:16:16.751Z,326
2022-09-22T10:17:16.397Z,329
2022-09-22T10:18:15.837Z,324
2022-09-22T10:19:16.805Z,333
2022-09-22T10:20:16.291Z,344
2022-09-22T10:21:15.962Z,343
2022-09-22T10:22:16.516Z,332
2022-09-22T10:25:16.065Z,325
2022-09-22T10:26:15.815Z,324
2022-09-22T10:27:15.851Z,332
2022-09-22T10:28:15.814Z,338
2022-09-22T10:29:16.170Z,344
2022-09-22T10:30:15.438Z,332
2022-09-22T10:31:16.792Z,331
2022-09-22T10:32:07.532Z,329
2022-09-22T10:33:16.443Z,324
2022-09-22T10:34:14.920Z,334
2022-09-22T10:36:16.920Z,339
2022-09-22T10:37:16.016Z,343
2022-09-22T10:38:16.618Z,344
2022-09-22T10:39:16.232Z,333
2022-09-22T10:40:15.816Z,322
2022-09-22T10:41:16.207Z,329
2022-09-22T10:42:15.671Z,323
2022-09-22T10:43:16.776Z,333
2022-09-22T10:44:42.974Z,337
2022-09-22T10:45:07.545Z,325
2022-09-22T10:46:16.404Z,334
2022-09-22T10:47:16.444Z,328
2022-09-22T10:48:16.111Z,322
2022-09-22T10:49:15.793Z,329
2022-09-22T10:50:16.257Z,328
2022-09-22T10:51:15.834Z,335
2022-09-22T10:52:15.677Z,332
2022-09-22T10:53:16.410Z,345
2022-09-22T10:54:15.255Z,338
2022-09-22T10:55:07.329Z,335
2022-09-22T10:56:07.225Z,329
2022-09-22T10:57:16.066Z,330
2022-09-22T10:58:15.581Z,324
2022-09-22T10:59:16.217Z,339
2022-09-22T11:00:07.369Z,337
2022-09-22T11:01:15.822Z,333
2022-09-22T11:02:16.785Z,337
2022-09-22T11:03:16.088Z,336
2022-09-22T11:04:15.245Z,334
2022-09-22T11:06:15.889Z,327
2022-09-22T11:07:15.791Z,337
2022-09-22T11:08:16.194Z,335
2022-09-22T11:09:15.305Z,324
2022-09-22T11:10:15.537Z,325
2022-09-22T11:11:16.480Z,326
2022-09-22T11:12:15.829Z,334
2022-09-22T11:13:15.720Z,337
2022-09-22T11:14:16.146Z,326
2022-09-22T11:15:16.226Z,331
2022-09-22T11:16:07.259Z,335
2022-09-22T11:17:16.154Z,336
2022-09-22T11:19:16.320Z,337
2022-09-22T11:22:17.433Z,331
2022-09-22T11:23:17.213Z,324
2022-09-22T11:24:15.417Z,323
2022-09-22T11:25:16.306Z,336
2022-09-22T11:26:16.431Z,332
2022-09-22T11:27:07.361Z,330
2022-09-22T11:28:15.733Z,329
2022-09-22T11:29:16.883Z,340
2022-09-22T11:30:16.272Z,338
2022-09-22T11:31:15.909Z,334
2022-09-22T11:32:15.947Z,335
2022-09-22T11:33:16.275Z,324
2022-09-22T11:34:15.181Z,322
2022-09-22T11:35:16.485Z,328
2022-09-22T11:36:15.951Z,329
2022-09-22T11:37:16.016Z,340
2022-09-22T11:39:15.864Z,338
2022-09-22T11:40:15.612Z,330
2022-09-22T11:41:16.316Z,331
2022-09-22T11:42:15.468Z,327
2022-09-22T11:43:16.394Z,335
2022-09-22T11:44:07.282Z,336
2022-09-22T11:45:07.895Z,335
2022-09-22T11:46:15.487Z,339
2022-09-22T11:47:16.345Z,330
2022-09-22T11:48:16.034Z,334
2022-09-22T11:50:15.616Z,338
2022-09-22T11:51:07.516Z,336
2022-09-22T11:53:16.193Z,350
2022-09-22T11:54:15.404Z,355
2022-09-22T11:55:07.761Z,343
2022-09-22T11:56:15.086Z,333
2022-09-22T11:57:16.010Z,344
2022-09-22T11:58:15.774Z,327
2022-09-22T11:59:16.288Z,326
2022-09-22T12:00:15.911Z,334
2022-09-22T12:01:17.872Z,332
2022-09-22T12:02:16.138Z,321
2022-09-22T12:03:16.106Z,340
2022-09-22T12:04:15.754Z,338
2022-09-22T12:05:16.481Z,345
2022-09-22T12:06:15.878Z,344
2022-09-22T12:07:16.015Z,331
2022-09-22T12:08:16.208Z,324
2022-09-22T12:09:16.093Z,328
2022-09-22T12:10:16.102Z,337
2022-09-22T12:11:16.324Z,350
2022-09-22T12:12:06.972Z,339
2022-09-22T12:13:15.715Z,332
2022-09-22T12:14:07.368Z,341
2022-09-22T12:15:16.718Z,339
2022-09-22T12:16:15.809Z,330
2022-09-22T12:17:18.784Z,318
2022-09-22T12:18:16.121Z,302
2022-09-22T12:19:16.187Z,312
2022-09-22T12:20:07.292Z,324
2022-09-22T12:22:16.874Z,337
2022-09-22T12:23:16.283Z,343
2022-09-22T12:24:07.165Z,329
2022-09-22T12:25:26.069Z,337
2022-09-22T12:26:16.758Z,348
2022-09-22T12:27:16.585Z,338
2022-09-22T12:28:15.583Z,324
2022-09-22T12:29:15.928Z,329
2022-09-22T12:31:16.680Z,332
2022-09-22T12:32:07.446Z,326
2022-09-22T12:33:15.972Z,340
2022-09-22T12:34:14.886Z,342
2022-09-22T12:35:16.367Z,343
2022-09-22T12:36:07.640Z,332
2022-09-22T12:37:07.707Z,339
2022-09-22T12:38:16.420Z,335
2022-09-22T12:39:15.657Z,329
2022-09-22T12:40:16.356Z,331
2022-09-22T12:41:16.359Z,330
2022-09-22T12:42:16.005Z,334
2022-09-22T12:43:07.809Z,335
2022-09-22T12:44:16.548Z,339
2022-09-22T12:45:07.393Z,337
2022-09-22T12:46:15.656Z,328
2022-09-22T12:47:15.972Z,341
2022-09-22T12:48:16.411Z,343
2022-09-22T12:49:15.934Z,335
2022-09-22T12:50:15.524Z,319
2022-09-22T12:51:16.381Z,316
2022-09-22T12:52:16.059Z,323
2022-09-22T12:53:16.565Z,316
2022-09-22T12:54:16.405Z,330
2022-09-22T12:55:21.402Z,342
2022-09-22T12:56:15.584Z,347
2022-09-22T12:57:16.070Z,352
2022-09-22T12:58:16.409Z,340
2022-09-22T12:59:15.484Z,334
2022-09-22T13:00:07.170Z,340
2022-09-22T13:01:07.587Z,348
2022-09-22T13:02:16.700Z,341
2022-09-22T13:03:16.529Z,339
2022-09-22T13:04:16.015Z,333
2022-09-22T13:05:16.578Z,319
2022-09-22T13:06:15.426Z,322
2022-09-22T13:07:16.154Z,331
2022-09-22T13:08:07.962Z,340
2022-09-22T13:09:14.836Z,342
2022-09-22T13:10:15.694Z,343
2022-09-22T13:11:07.620Z,345
2022-09-22T13:12:15.863Z,337
2022-09-22T13:14:18.352Z,339
2022-09-22T13:15:16.060Z,340
2022-09-22T13:16:15.777Z,351
2022-09-22T13:17:16.561Z,357
2022-09-22T13:18:07.354Z,354
2022-09-22T13:19:07.769Z,345
2022-09-22T13:20:16.244Z,343
2022-09-22T13:21:15.863Z,342
2022-09-22T13:22:16.386Z,341
2022-09-22T13:23:16.218Z,332
2022-09-22T13:24:17.406Z,334
2022-09-22T13:25:16.313Z,337
2022-09-22T13:27:16.199Z,343
2022-09-22T13:28:16.450Z,344
2022-09-22T13:30:15.810Z,332
2022-09-22T13:31:16.465Z,335
2022-09-22T13:32:18.571Z,354
2022-09-22T13:33:16.745Z,344
2022-09-22T13:34:07.364Z,343
2022-09-22T13:35:16.639Z,342
2022-09-22T13:36:16.585Z,345
2022-09-22T13:37:15.876Z,343
2022-09-22T13:38:16.740Z,334
2022-09-22T13:39:16.045Z,330
2022-09-22T13:40:15.877Z,334
2022-09-22T13:41:16.117Z,339
2022-09-22T13:42:16.183Z,342
2022-09-22T13:43:15.637Z,333
2022-09-22T13:44:15.959Z,343
2022-09-22T13:45:15.442Z,335
2022-09-22T13:46:16.191Z,340
2022-09-22T13:47:15.959Z,344
2022-09-22T13:48:15.395Z,343
2022-09-22T13:49:15.539Z,339
2022-09-22T13:51:15.812Z,346
2022-09-22T13:52:15.812Z,341
2022-09-22T13:53:15.746Z,348
2022-09-22T13:54:15.702Z,350
2022-09-22T13:55:07.521Z,352
2022-09-22T13:56:21.364Z,351
2022-09-22T13:57:07.635Z,350
2022-09-22T14:00:16.451Z,348
2022-09-22T14:01:19.008Z,355
2022-09-22T14:02:16.873Z,351
2022-09-22T14:03:07.631Z,347
2022-09-22T14:04:08.163Z,339
2022-09-22T14:06:15.415Z,340
2022-09-22T14:07:15.755Z,336
2022-09-22T14:08:20.265Z,347
2022-09-22T14:09:15.906Z,353
2022-09-22T14:10:08.112Z,352
2022-09-22T14:11:15.579Z,356
2022-09-22T14:12:16.142Z,354
2022-09-22T14:13:15.638Z,344
2022-09-22T14:14:08.145Z,340
2022-09-22T14:15:16.096Z,346
2022-09-22T14:16:16.967Z,335
2022-09-22T14:17:16.163Z,332
2022-09-22T14:18:15.681Z,333
2022-09-22T14:19:16.766Z,340
2022-09-22T14:20:07.136Z,344
2022-09-22T14:21:16.199Z,345
2022-09-22T14:22:15.403Z,346
2022-09-22T14:23:07.795Z,342
2022-09-22T14:24:16.580Z,348
2022-09-22T14:25:07.745Z,339
2022-09-22T14:26:16.270Z,336
2022-09-22T14:27:16.231Z,347
2022-09-22T14:28:15.103Z,335
2022-09-22T14:29:16.488Z,330
2022-09-22T14:30:15.601Z,332
2022-09-22T14:31:15.815Z,340
2022-09-22T14:32:11.878Z,346
2022-09-22T14:33:16.616Z,352
2022-09-22T14:34:16.314Z,342
2022-09-22T14:35:15.938Z,346
2022-09-22T14:36:16.114Z,345
2022-09-22T14:37:16.544Z,339
2022-09-22T14:38:20.003Z,341
2022-09-22T14:39:16.588Z,348
2022-09-22T14:40:16.037Z,346
2022-09-22T14:41:15.703Z,343
2022-09-22T14:42:16.242Z,352
2022-09-22T14:43:15.928Z,354
2022-09-22T14:44:14.836Z,339
2022-09-22T14:45:16.315Z,324
2022-09-22T14:46:15.911Z,334
2022-09-22T14:47:16.090Z,332
2022-09-22T14:48:15.768Z,334
2022-09-22T14:50:15.228Z,337
2022-09-22T14:51:15.898Z,339
2022-09-22T14:52:15.894Z,340
2022-09-22T14:53:15.397Z,336